createdAt,value
2023-03-20T00:02:00.726Z,9.98
2023-03-20T00:04:27.244Z,9.92
2023-03-20T00:06:53.569Z,9.90
2023-03-20T00:09:19.936Z,9.85
2023-03-20T00:11:51.387Z,9.93
2023-03-20T00:14:22.174Z,9.92
2023-03-20T00:16:49.629Z,10.01
2023-03-20T00:19:20.640Z,10.04
2023-03-20T00:21:47.723Z,9.86
2023-03-20T00:24:15.754Z,9.98
2023-03-20T00:26:44.176Z,9.93
2023-03-20T00:29:19.758Z,9.97
2023-03-20T00:31:46.118Z,9.91
2023-03-20T00:34:15.325Z,9.82
2023-03-20T00:36:41.782Z,9.66
2023-03-20T00:39:09.864Z,9.66
2023-03-20T00:41:39.130Z,9.76
2023-03-20T00:44:15.335Z,9.74
2023-03-20T00:46:43.772Z,9.66
2023-03-20T00:49:11.705Z,9.71
2023-03-20T00:51:39.572Z,9.73
2023-03-20T00:54:12.886Z,9.73
2023-03-20T00:56:46.078Z,9.76
2023-03-20T00:59:18.323Z,9.79
2023-03-20T01:01:45.227Z,9.74
2023-03-20T01:04:14.046Z,9.60
2023-03-20T01:06:40.381Z,9.70
2023-03-20T01:09:06.762Z,9.63
2023-03-20T01:11:33.505Z,9.78
2023-03-20T01:14:00.508Z,9.77
2023-03-20T01:16:27.203Z,9.88
2023-03-20T01:18:54.332Z,9.81
2023-03-20T01:21:21.273Z,9.80
2023-03-20T01:23:49.350Z,9.80
2023-03-20T01:26:23.323Z,9.78
2023-03-20T01:28:51.068Z,9.77
2023-03-20T01:31:18.791Z,9.86
2023-03-20T01:33:46.625Z,9.81
2023-03-20T01:36:15.767Z,9.88
2023-03-20T01:38:43.430Z,9.88
2023-03-20T01:41:16.487Z,9.85
2023-03-20T01:43:45.843Z,9.59
2023-03-20T01:46:18.486Z,9.59
2023-03-20T01:48:58.338Z,9.77
2023-03-20T01:51:32.827Z,9.58
2023-03-20T01:54:10.709Z,9.69
2023-03-20T01:56:51.968Z,9.48
2023-03-20T01:59:26.894Z,9.53
2023-03-20T02:01:53.988Z,9.61
2023-03-20T02:04:28.155Z,9.57
2023-03-20T02:07:00.974Z,9.74
2023-03-20T02:09:37.552Z,9.65
2023-03-20T02:12:08.975Z,9.64
2023-03-20T02:14:36.019Z,9.73
2023-03-20T02:17:13.507Z,9.84
2023-03-20T02:20:13.223Z,9.86
2023-03-20T02:23:17.124Z,9.82
2023-03-20T02:26:01.494Z,9.69
2023-03-20T02:29:14.902Z,9.74
2023-03-20T02:32:11.776Z,9.62
2023-03-20T02:34:44.400Z,9.61
2023-03-20T02:37:29.448Z,9.60
2023-03-20T02:40:22.327Z,9.46
2023-03-20T02:42:54.745Z,9.48
2023-03-20T02:45:53.805Z,9.47
2023-03-20T02:48:31.227Z,9.44
2023-03-20T02:51:12.234Z,9.41
2023-03-20T02:53:51.462Z,9.45
2023-03-20T02:56:57.745Z,9.27
2023-03-20T02:59:40.620Z,9.15
2023-03-20T03:02:09.405Z,9.12
2023-03-20T03:04:40.442Z,9.18
2023-03-20T03:07:09.953Z,9.15
2023-03-20T03:09:46.236Z,9.27
2023-03-20T03:12:17.964Z,9.23
2023-03-20T03:14:51.350Z,9.26
2023-03-20T03:17:19.957Z,9.27
2023-03-20T03:19:50.814Z,9.19
2023-03-20T03:22:18.372Z,9.14
2023-03-20T03:24:47.755Z,9.16
2023-03-20T03:27:27.073Z,9.15
2023-03-20T03:30:00.458Z,9.18
2023-03-20T03:32:30.362Z,9.12
2023-03-20T03:34:58.509Z,9.01
2023-03-20T03:37:56.242Z,9.05
2023-03-20T03:40:39.786Z,9.20
2023-03-20T03:43:18.191Z,9.19
2023-03-20T03:45:52.983Z,9.07
2023-03-20T03:48:27.263Z,9.06
2023-03-20T03:51:02.207Z,9.03
2023-03-20T03:53:33.860Z,8.95
2023-03-20T03:56:06.887Z,8.97
2023-03-20T03:58:39.904Z,9.00
2023-03-20T04:01:08.125Z,9.00
2023-03-20T04:03:39.395Z,9.03
2023-03-20T04:06:09.884Z,8.97
2023-03-20T04:08:36.281Z,8.99
2023-03-20T04:11:02.875Z,9.05
2023-03-20T04:13:29.432Z,9.02
2023-03-20T04:15:56.221Z,8.88
2023-03-20T04:18:24.965Z,8.98
2023-03-20T04:20:52.297Z,9.00
2023-03-20T04:23:18.587Z,8.96
2023-03-20T04:25:45.166Z,8.90
2023-03-20T04:28:11.806Z,8.93
2023-03-20T04:30:59.739Z,8.96
2023-03-20T04:33:51.202Z,8.92
2023-03-20T04:36:32.654Z,8.97
2023-03-20T04:38:59.262Z,9.04
2023-03-20T04:41:26.531Z,9.10
2023-03-20T04:43:55.542Z,8.94
2023-03-20T04:46:22.619Z,8.94
2023-03-20T04:48:48.986Z,8.94
2023-03-20T04:51:16.037Z,9.05
2023-03-20T04:53:49.098Z,8.94
2023-03-20T04:56:15.643Z,8.96
2023-03-20T04:58:42.032Z,9.01
2023-03-20T05:01:09.576Z,9.10
2023-03-20T05:03:35.899Z,9.21
2023-03-20T05:06:02.598Z,9.23
2023-03-20T05:08:29.625Z,9.12
2023-03-20T05:10:59.693Z,9.18
2023-03-20T05:13:44.490Z,9.09
2023-03-20T05:16:29.397Z,9.02
2023-03-20T05:19:18.936Z,9.15
2023-03-20T05:22:10.236Z,9.15
2023-03-20T05:24:48.466Z,9.21
2023-03-20T05:27:46.071Z,9.15
2023-03-20T05:30:48.091Z,9.03
2023-03-20T05:33:32.981Z,8.99
2023-03-20T05:36:16.131Z,9.00
2023-03-20T05:39:11.686Z,8.86
2023-03-20T05:42:04.341Z,9.01
2023-03-20T05:44:48.118Z,8.97
2023-03-20T05:47:40.659Z,8.88
2023-03-20T05:50:18.857Z,8.97
2023-03-20T05:52:59.180Z,8.82
2023-03-20T05:55:33.410Z,8.92
2023-03-20T05:58:12.864Z,8.95
2023-03-20T06:00:44.918Z,8.95
2023-03-20T06:03:46.344Z,8.84
2023-03-20T06:06:17.741Z,8.84
2023-03-20T06:08:48.479Z,8.92
2023-03-20T06:11:15.884Z,8.92
2023-03-20T06:13:42.168Z,8.96
2023-03-20T06:16:10.271Z,9.01
2023-03-20T06:18:39.018Z,8.99
2023-03-20T06:21:07.442Z,9.02
2023-03-20T06:23:34.104Z,8.99
2023-03-20T06:26:01.878Z,8.92
2023-03-20T06:28:31.605Z,9.11
2023-03-20T06:31:04.192Z,9.11
2023-03-20T06:33:30.625Z,9.12
2023-03-20T06:35:59.310Z,9.11
2023-03-20T06:38:27.941Z,9.09
2023-03-20T06:40:54.389Z,9.01
2023-03-20T06:43:22.199Z,9.04
2023-03-20T06:45:52.141Z,9.08
2023-03-20T06:48:23.545Z,9.11
2023-03-20T06:50:51.349Z,9.30
2023-03-20T06:53:20.980Z,9.28
2023-03-20T06:55:54.735Z,9.17
2023-03-20T06:58:21.156Z,9.22
2023-03-20T07:00:50.311Z,9.20
2023-03-20T07:03:16.674Z,9.18
2023-03-20T07:05:45.754Z,9.31
2023-03-20T07:08:12.243Z,9.26
2023-03-20T07:10:38.933Z,9.24
2023-03-20T07:13:05.524Z,9.25
2023-03-20T07:15:33.037Z,9.30
2023-03-20T07:17:59.440Z,9.32
2023-03-20T07:20:27.541Z,9.37
2023-03-20T07:22:55.252Z,9.34
2023-03-20T07:25:39.420Z,9.45
2023-03-20T07:28:08.821Z,9.45
2023-03-20T07:30:37.308Z,9.51
2023-03-20T07:33:04.736Z,9.48
2023-03-20T07:35:33.456Z,9.44
2023-03-20T07:38:00.124Z,9.53
2023-03-20T07:40:26.942Z,9.54
2023-03-20T07:42:56.150Z,9.63
2023-03-20T07:45:40.951Z,9.62
2023-03-20T07:48:07.534Z,9.66
2023-03-20T07:50:34.194Z,9.69
2023-03-20T07:53:01.589Z,9.64
2023-03-20T07:55:27.950Z,9.68
2023-03-20T07:57:54.284Z,9.67
2023-03-20T08:00:20.942Z,9.79
2023-03-20T08:02:47.384Z,9.79
2023-03-20T08:05:13.763Z,9.84
2023-03-20T08:07:40.328Z,9.85
2023-03-20T08:10:07.332Z,9.85
2023-03-20T08:12:33.632Z,9.80
2023-03-20T08:14:59.924Z,9.88
2023-03-20T08:17:26.316Z,9.89
2023-03-20T08:19:52.733Z,9.86
2023-03-20T08:22:19.056Z,9.87
2023-03-20T08:24:45.394Z,9.86
2023-03-20T08:27:11.752Z,9.90
2023-03-20T08:29:38.170Z,9.82
2023-03-20T08:32:04.828Z,9.96
2023-03-20T08:34:33.396Z,10.06
2023-03-20T08:36:59.735Z,10.15
2023-03-20T08:39:26.563Z,10.11
2023-03-20T08:41:52.945Z,10.20
2023-03-20T08:44:19.297Z,10.26
2023-03-20T08:46:46.539Z,10.27
2023-03-20T08:49:13.317Z,10.30
2023-03-20T08:51:39.678Z,10.30
2023-03-20T08:54:06.051Z,10.37
2023-03-20T08:56:32.436Z,10.45
2023-03-20T08:58:58.777Z,10.49
2023-03-20T09:01:32.572Z,10.60
2023-03-20T09:04:04.991Z,10.66
2023-03-20T09:06:32.812Z,10.69
2023-03-20T09:08:59.113Z,10.79
2023-03-20T09:11:25.495Z,10.80
2023-03-20T09:13:52.000Z,10.75
2023-03-20T09:16:18.520Z,10.79
2023-03-20T09:18:44.858Z,10.82
2023-03-20T09:21:11.251Z,10.88
2023-03-20T09:23:37.573Z,10.83
2023-03-20T09:26:04.150Z,10.84
2023-03-20T09:28:30.597Z,10.94
2023-03-20T09:30:58.414Z,10.92
2023-03-20T09:33:26.094Z,10.89
2023-03-20T09:35:52.523Z,10.89
2023-03-20T09:38:19.080Z,10.82
2023-03-20T09:41:23.059Z,10.88
2023-03-20T09:44:08.146Z,10.97
2023-03-20T09:46:49.881Z,11.07
2023-03-20T09:49:51.882Z,11.23
2023-03-20T09:52:27.253Z,11.24
2023-03-20T09:55:02.178Z,11.38
2023-03-20T09:57:35.813Z,11.48
2023-03-20T10:00:07.839Z,11.99
2023-03-20T10:03:00.061Z,12.11
2023-03-20T10:05:29.054Z,12.21
2023-03-20T10:07:59.199Z,12.15
2023-03-20T10:10:48.617Z,12.08
2023-03-20T10:13:53.959Z,11.98
2023-03-20T10:16:55.580Z,12.09
2023-03-20T10:19:31.101Z,12.13
2023-03-20T10:22:15.383Z,12.16
2023-03-20T10:24:49.729Z,12.16
2023-03-20T10:27:27.671Z,12.19
2023-03-20T10:30:51.908Z,12.08
2023-03-20T10:33:28.262Z,12.11
2023-03-20T10:36:24.132Z,12.01
2023-03-20T10:38:55.718Z,12.16
2023-03-20T10:41:28.524Z,12.19
2023-03-20T10:43:57.582Z,12.21
2023-03-20T10:46:28.508Z,12.45
2023-03-20T10:49:12.879Z,12.75
2023-03-20T10:51:47.436Z,13.22
2023-03-20T10:54:43.413Z,13.84
2023-03-20T10:57:21.033Z,13.92
2023-03-20T10:59:50.496Z,14.17
2023-03-20T11:02:19.797Z,13.83
2023-03-20T11:04:46.560Z,13.93
2023-03-20T11:07:35.892Z,14.03
2023-03-20T11:10:05.183Z,14.34
2023-03-20T11:12:37.636Z,14.49
2023-03-20T11:15:18.439Z,14.57
2023-03-20T11:17:54.327Z,14.68
2023-03-20T11:20:20.781Z,14.70
2023-03-20T11:22:49.798Z,14.66
2023-03-20T11:25:28.245Z,14.48
2023-03-20T11:27:56.416Z,14.42
2023-03-20T11:30:23.050Z,14.26
2023-03-20T11:32:55.647Z,14.19
2023-03-20T11:35:27.934Z,13.99
2023-03-20T11:38:06.782Z,13.78
2023-03-20T11:40:33.694Z,13.67
2023-03-20T11:43:00.114Z,13.47
2023-03-20T11:45:28.847Z,13.38
2023-03-20T11:47:56.990Z,13.28
2023-03-20T11:50:38.280Z,13.21
2023-03-20T11:53:22.326Z,13.17
2023-03-20T11:56:03.597Z,13.06
2023-03-20T11:58:29.937Z,12.92
2023-03-20T12:00:57.076Z,12.98
2023-03-20T12:03:42.166Z,12.84
2023-03-20T12:06:16.280Z,12.62
2023-03-20T12:08:48.734Z,12.64
2023-03-20T12:11:53.935Z,12.54
2023-03-20T12:14:30.632Z,12.48
2023-03-20T12:17:13.562Z,12.55
2023-03-20T12:19:41.343Z,12.54
2023-03-20T12:22:19.896Z,12.46
2023-03-20T12:24:56.539Z,12.46
2023-03-20T12:27:33.498Z,12.29
2023-03-20T12:30:12.814Z,12.41
2023-03-20T12:33:10.021Z,12.43
2023-03-20T12:35:40.583Z,12.36
2023-03-20T12:38:22.260Z,12.36
2023-03-20T12:40:53.604Z,12.25
2023-03-20T12:43:27.415Z,12.20
2023-03-20T12:46:11.529Z,12.26
2023-03-20T12:48:51.904Z,12.37
2023-03-20T12:51:40.346Z,12.38
2023-03-20T12:54:19.538Z,12.35
2023-03-20T12:57:11.392Z,12.27
2023-03-20T13:00:02.728Z,12.20
2023-03-20T13:02:48.337Z,12.19
2023-03-20T13:05:41.418Z,12.27
2023-03-20T13:08:33.591Z,12.27
2023-03-20T13:11:11.195Z,12.23
2023-03-20T13:13:58.960Z,12.20
2023-03-20T13:16:57.904Z,12.05
2023-03-20T13:19:30.417Z,12.02
2023-03-20T13:22:06.832Z,12.00
2023-03-20T13:24:38.741Z,12.03
2023-03-20T13:27:31.378Z,12.08
2023-03-20T13:30:31.238Z,12.09
2023-03-20T13:33:20.437Z,12.10
2023-03-20T13:35:59.685Z,11.94
2023-03-20T13:38:40.910Z,11.90
2023-03-20T13:41:09.715Z,11.90
2023-03-20T13:43:49.084Z,11.99
2023-03-20T13:46:23.671Z,12.01
2023-03-20T13:48:53.081Z,11.98
2023-03-20T13:51:38.189Z,12.00
2023-03-20T13:54:26.636Z,11.87
2023-03-20T13:56:56.544Z,11.73
2023-03-20T13:59:44.406Z,11.75
2023-03-20T14:02:36.567Z,11.76
2023-03-20T14:05:17.430Z,11.80
2023-03-20T14:07:46.380Z,11.73
2023-03-20T14:10:21.767Z,11.59
2023-03-20T14:12:59.665Z,11.62
2023-03-20T14:15:34.134Z,11.67
2023-03-20T14:18:05.578Z,11.60
2023-03-20T14:20:41.086Z,11.53
2023-03-20T14:23:17.465Z,11.52
2023-03-20T14:25:44.306Z,11.60
2023-03-20T14:28:10.729Z,11.61
2023-03-20T14:30:40.835Z,11.57
2023-03-20T14:33:24.594Z,11.49
2023-03-20T14:36:09.873Z,11.49
2023-03-20T14:39:01.691Z,11.52
2023-03-20T14:41:49.732Z,11.55
2023-03-20T14:44:46.979Z,11.49
2023-03-20T14:47:31.924Z,11.54
2023-03-20T14:50:18.632Z,11.55
2023-03-20T14:52:52.576Z,11.54
2023-03-20T14:55:22.315Z,11.53
2023-03-20T14:57:56.704Z,11.44
2023-03-20T15:00:25.642Z,11.41
2023-03-20T15:02:57.763Z,11.41
2023-03-20T15:05:30.674Z,11.44
2023-03-20T15:08:03.183Z,11.33
2023-03-20T15:10:29.813Z,11.35
2023-03-20T15:12:57.943Z,11.29
2023-03-20T15:15:31.502Z,11.35
2023-03-20T15:18:04.700Z,11.38
2023-03-20T15:20:31.779Z,11.41
2023-03-20T15:23:02.403Z,11.49
2023-03-20T15:25:33.777Z,11.36
2023-03-20T15:28:00.538Z,11.35
2023-03-20T15:30:31.856Z,11.30
2023-03-20T15:32:58.869Z,11.34
2023-03-20T15:35:27.050Z,11.31
2023-03-20T15:37:56.123Z,11.39
2023-03-20T15:40:37.111Z,11.34
2023-03-20T15:43:24.758Z,11.23
2023-03-20T15:46:02.958Z,11.21
2023-03-20T15:48:33.025Z,11.10
2023-03-20T15:51:04.881Z,11.15
2023-03-20T15:53:39.131Z,11.10
2023-03-20T15:56:17.828Z,11.07
2023-03-20T15:58:46.953Z,11.11
2023-03-20T16:01:19.719Z,11.14
2023-03-20T16:03:46.644Z,11.03
2023-03-20T16:06:16.422Z,11.12
2023-03-20T16:08:43.485Z,11.13
2023-03-20T16:11:15.511Z,11.08
2023-03-20T16:13:47.599Z,11.07
2023-03-20T16:16:21.038Z,10.99
2023-03-20T16:18:48.151Z,11.04
2023-03-20T16:21:38.002Z,11.10
2023-03-20T16:24:13.975Z,11.04
2023-03-20T16:26:44.195Z,10.96
2023-03-20T16:29:14.828Z,10.92
2023-03-20T16:31:48.395Z,10.93
2023-03-20T16:34:21.960Z,10.91
2023-03-20T16:36:57.606Z,10.87
2023-03-20T16:39:27.807Z,10.80
2023-03-20T16:42:03.538Z,10.85
2023-03-20T16:44:35.237Z,10.85
2023-03-20T16:47:17.020Z,10.88
2023-03-20T16:49:52.506Z,10.86
2023-03-20T16:52:30.085Z,10.86
2023-03-20T16:54:58.413Z,10.83
2023-03-20T16:57:26.943Z,10.76
2023-03-20T16:59:58.621Z,10.77
2023-03-20T17:02:29.597Z,10.78
2023-03-20T17:05:01.138Z,10.79
2023-03-20T17:07:28.384Z,10.68
2023-03-20T17:09:59.141Z,10.71
2023-03-20T17:12:30.936Z,10.67
2023-03-20T17:14:57.231Z,10.72
2023-03-20T17:17:24.943Z,10.67
2023-03-20T17:19:51.810Z,10.64
2023-03-20T17:22:26.471Z,10.71
2023-03-20T17:24:52.849Z,10.58
2023-03-20T17:27:20.584Z,10.55
2023-03-20T17:29:49.569Z,10.56
2023-03-20T17:32:23.654Z,10.58
2023-03-20T17:34:50.648Z,10.47
2023-03-20T17:37:27.770Z,10.50
2023-03-20T17:39:55.543Z,10.38
2023-03-20T17:42:26.458Z,10.52
2023-03-20T17:44:53.184Z,10.59
2023-03-20T17:47:22.011Z,10.50
2023-03-20T17:49:48.845Z,10.47
2023-03-20T17:52:19.160Z,10.48
2023-03-20T17:54:46.800Z,10.43
2023-03-20T17:57:23.742Z,10.49
2023-03-20T17:59:50.479Z,10.20
2023-03-20T18:02:18.172Z,10.34
2023-03-20T18:04:45.757Z,10.23
2023-03-20T18:07:12.625Z,10.27
2023-03-20T18:09:43.264Z,10.39
2023-03-20T18:12:12.571Z,10.28
2023-03-20T18:14:40.744Z,10.34
2023-03-20T18:17:07.443Z,10.38
2023-03-20T18:19:33.898Z,10.25
2023-03-20T18:22:00.592Z,10.34
2023-03-20T18:24:27.128Z,10.41
2023-03-20T18:26:54.958Z,10.38
2023-03-20T18:29:21.333Z,10.23
2023-03-20T18:31:49.069Z,10.28
2023-03-20T18:34:16.065Z,10.23
2023-03-20T18:36:43.722Z,10.25
2023-03-20T18:39:16.937Z,10.27
2023-03-20T18:41:43.664Z,10.33
2023-03-20T18:44:10.021Z,10.24
2023-03-20T18:46:36.389Z,10.33
2023-03-20T18:49:02.869Z,10.26
2023-03-20T18:51:29.236Z,10.13
2023-03-20T18:53:55.598Z,10.32
2023-03-20T18:56:25.264Z,10.37
2023-03-20T18:58:52.740Z,10.20
2023-03-20T19:01:20.179Z,10.28
2023-03-20T19:03:47.605Z,10.26
2023-03-20T19:06:15.548Z,10.17
2023-03-20T19:08:42.426Z,10.19
2023-03-20T19:11:14.838Z,10.23
2023-03-20T19:13:49.594Z,10.23
2023-03-20T19:16:19.034Z,10.16
2023-03-20T19:18:45.792Z,10.20
2023-03-20T19:21:12.148Z,10.21
2023-03-20T19:23:38.423Z,10.13
2023-03-20T19:26:06.276Z,10.10
2023-03-20T19:28:40.520Z,10.13
2023-03-20T19:31:09.396Z,10.02
2023-03-20T19:33:37.282Z,10.05
2023-03-20T19:36:04.917Z,10.02
2023-03-20T19:38:32.591Z,10.05
2023-03-20T19:41:00.113Z,10.06
2023-03-20T19:43:28.852Z,10.10
2023-03-20T19:45:58.553Z,10.12
2023-03-20T19:48:43.224Z,10.08
2023-03-20T19:51:21.529Z,9.95
2023-03-20T19:53:48.908Z,9.96
2023-03-20T19:56:16.828Z,9.91
2023-03-20T19:58:43.494Z,9.81
2023-03-20T20:01:22.645Z,10.04
2023-03-20T20:03:50.436Z,9.99
2023-03-20T20:06:18.977Z,9.95
2023-03-20T20:08:49.270Z,9.89
2023-03-20T20:11:18.336Z,9.87
2023-03-20T20:14:04.855Z,9.96
2023-03-20T20:16:32.702Z,10.00
2023-03-20T20:18:59.100Z,10.00
2023-03-20T20:22:13.287Z,10.11
2023-03-20T20:24:12.292Z,9.91
2023-03-20T20:26:45.239Z,9.92
2023-03-20T20:29:15.799Z,9.76
2023-03-20T20:31:42.215Z,9.82
2023-03-20T20:35:14.310Z,9.85
2023-03-20T20:39:41.407Z,9.98
2023-03-20T20:42:07.881Z,9.87
2023-03-20T20:44:34.612Z,9.77
2023-03-20T20:47:01.010Z,9.76
2023-03-20T20:49:27.554Z,9.80
2023-03-20T20:51:53.889Z,9.84
2023-03-20T20:54:20.223Z,9.81
2023-03-20T20:56:46.609Z,9.73
2023-03-20T20:59:13.015Z,9.81
2023-03-20T21:01:39.432Z,9.88
2023-03-20T21:04:05.849Z,9.90
2023-03-20T21:06:58.220Z,9.68
2023-03-20T21:09:19.221Z,9.79
2023-03-20T21:11:46.293Z,9.89
2023-03-20T21:14:14.095Z,9.73
2023-03-20T21:16:40.445Z,9.69
2023-03-20T21:19:06.936Z,9.74
2023-03-20T21:21:34.877Z,9.70
2023-03-20T21:24:01.798Z,9.71
2023-03-20T21:26:28.149Z,9.71
2023-03-20T21:28:54.518Z,9.72
2023-03-20T21:31:29.334Z,9.77
2023-03-20T21:33:57.753Z,9.80
2023-03-20T21:36:24.516Z,9.76
2023-03-20T21:39:07.509Z,9.82
2023-03-20T21:41:36.238Z,9.71
2023-03-20T21:44:03.698Z,9.63
2023-03-20T21:47:06.972Z,9.81
2023-03-20T21:50:07.728Z,9.74
2023-03-20T22:03:11.620Z,9.73
2023-03-20T22:06:24.080Z,9.68
2023-03-20T22:25:46.373Z,9.68
2023-03-20T22:28:34.370Z,9.70
2023-03-20T22:34:20.112Z,9.58
2023-03-20T22:39:40.882Z,9.60
2023-03-20T22:42:28.579Z,9.51
2023-03-20T22:45:00.112Z,9.58
2023-03-20T22:47:21.668Z,9.64
2023-03-20T22:49:47.971Z,9.68
2023-03-20T22:52:29.062Z,9.56
2023-03-20T22:55:00.612Z,9.51
2023-03-20T22:57:40.257Z,9.63
2023-03-20T23:00:11.014Z,9.49
2023-03-20T23:02:37.352Z,9.42
2023-03-20T23:05:04.115Z,9.44
2023-03-20T23:07:30.483Z,9.40
2023-03-20T23:09:58.035Z,9.48
2023-03-20T23:12:24.347Z,9.45
2023-03-20T23:14:50.686Z,9.55
2023-03-20T23:17:16.954Z,9.56
2023-03-20T23:19:56.517Z,9.58
2023-03-20T23:22:28.267Z,9.54
2023-03-20T23:24:57.328Z,9.54
2023-03-20T23:27:26.177Z,9.52
2023-03-20T23:29:52.526Z,9.54
2023-03-20T23:32:18.873Z,9.48
2023-03-20T23:34:45.181Z,9.50
2023-03-20T23:37:11.626Z,9.55
2023-03-20T23:39:37.957Z,9.51
2023-03-20T23:42:17.354Z,9.61
2023-03-20T23:44:55.408Z,9.42
2023-03-20T23:47:25.653Z,9.46
2023-03-20T23:49:53.915Z,9.46
2023-03-20T23:52:20.431Z,9.38
2023-03-20T23:54:46.719Z,9.34
2023-03-20T23:57:13.035Z,9.40
2023-03-20T23:59:39.488Z,9.35
